Latest Weather Observations for Badgerys Creek

IDN60901

Issued at 6:02 pm EST Saturday 5 September 2026 (issued every 10 minutes, with the page automatically refreshed every 10 minutes)

About weather observations | Map of Sydney area stations | Latest observations for Sydney area | Other Formats
Station Details ID: 067108 Name: BADGERYS CREEK AWS Lat: -33.90 Lon: 150.73 Height: 81.2 m
Data from the previous 72 hours. | See also: Recent months at Badgerys Creek
Date/Time
EST
Temp
°C
App
Temp
°C
Dew
Point
°C
Rel
Hum
%
Delta-T
°C
Wind Press
QNH
hPa
Press
MSL
hPa
Rain since
9am
mm
Dir  Spd
km/h
Gust
km/h
Spd
kts
Gust
kts
05/06:00pm 19.4 16.4 12.7 65 3.8 N 20 32 11 17 1008.7 1008.6 1.8
05/05:30pm 18.7 16.4 14.6 77 2.4 N 20 30 11 16 1008.8 1008.7 1.8
05/05:00pm 19.3 18.5 15.0 76 2.5 NW 13 19 7 10 1010.4 1010.3 1.8
05/04:30pm 18.9 17.9 15.6 81 2.0 WNW 15 19 8 10 1010.0 1009.9 1.8
05/04:15pm 18.5 16.4 14.6 78 2.3 W 19 32 10 17 1010.3 1010.2 1.8
05/04:00pm 18.5 10.6 13.8 74 2.7 W 48 78 26 42 1010.7 1010.6 1.2
05/03:57pm 19.1 9.9 13.3 69 3.3 W 54 78 29 42 1010.6 1010.5 0.8
05/03:54pm 20.3 10.9 11.5 57 4.9 W 52 78 28 42 1010.3 1010.2 0.2
05/03:50pm 26.8 19.7 9.6 34 9.5 W 37 74 20 40 1009.1 1009.0 0.0
05/03:48pm 27.8 21.5 9.1 31 10.3 W 32 61 17 33 1008.8 1008.7 0.0
05/03:37pm 28.6 23.0 8.8 29 10.9 WNW 28 48 15 26 1007.5 1007.4 0.0
05/03:31pm 28.8 23.3 9.0 29 11.0 WNW 28 46 15 25 1007.3 1007.2 0.0
05/03:30pm 28.9 23.4 9.1 29 11.0 WNW 28 46 15 25 1007.4 1007.3 0.0
05/03:00pm 29.6 19.9 9.2 28 11.4 WNW 50 74 27 40 1006.9 1006.8 0.0
05/02:56pm 29.0 19.6 8.7 28 11.2 WNW 48 70 26 38 1007.1 1007.0 0.0
05/02:42pm 30.1 19.5 8.5 26 12.0 W 54 82 29 44 1006.6 1006.5 0.0
05/02:37pm 30.0 21.1 7.8 25 12.1 W 44 82 24 44 1006.5 1006.4 0.0
05/02:32pm 31.0 22.1 7.5 23 12.9 WNW 44 67 24 36 1006.6 1006.5 0.0
05/02:30pm 31.6 22.5 8.6 24 12.9 WNW 46 67 25 36 1006.5 1006.4 0.0
05/02:13pm 31.9 22.8 6.9 21 13.6 WNW 44 74 24 40 1006.2 1006.1 0.0
05/02:03pm 32.6 26.1 8.1 22 13.6 WNW 32 59 17 32 1006.2 1006.1 0.0
05/02:00pm 32.5 26.0 8.0 22 13.7 WNW 32 44 17 24 1006.0 1005.9 0.0
05/01:35pm 32.3 25.3 8.5 23 13.3 NW 35 50 19 27 1006.3 1006.2 0.0
05/01:30pm 32.1 25.1 8.4 23 13.2 NW 35 50 19 27 1006.4 1006.3 0.0
05/01:20pm 31.8 23.1 7.5 22 13.4 NW 43 67 23 36 1006.8 1006.7 0.0
05/01:10pm 32.5 26.9 8.7 23 13.4 WNW 28 61 15 33 1007.1 1007.0 0.0
05/01:00pm 31.4 27.4 9.0 25 12.6 WNW 20 35 11 19 1007.3 1007.2 0.0
05/12:30pm 29.4 26.1 9.5 29 11.2 N 17 24 9 13 1008.6 1008.5 0.0
05/12:00pm 28.8 23.5 10.0 31 10.6 N 28 37 15 20 1009.5 1009.4 0.0
05/11:30am 28.0 23.4 9.8 32 10.2 N 24 35 13 19 1010.4 1010.3 0.0
05/11:00am 26.4 23.6 11.3 39 8.6 NNE 17 24 9 13 1011.4 1011.3 0.0
05/10:30am 24.5 22.1 11.5 44 7.4 NNE 15 19 8 10 1012.3 1012.2 0.0
05/10:00am 21.9 19.9 10.1 47 6.4 NNE 11 15 6 8 1013.5 1013.4 0.0
05/09:30am 20.8 18.1 10.3 51 5.7 NNE 15 22 8 12 1014.2 1014.1 0.0
05/09:00am 18.5 15.7 10.1 58 4.5 NNE 15 19 8 10 1014.9 1014.9 0.0
05/08:30am 16.1 14.1 10.0 67 3.2 NNE 11 13 6 7 1015.2 1015.2 0.0
05/08:00am 14.0 12.5 10.6 80 1.8 N 9 13 5 7 1015.7 1015.7 0.0
05/07:30am 11.5 10.9 10.4 93 0.6 W 4 7 2 4 1016.0 1016.0 0.0
05/07:00am 9.3 9.0 8.8 97 0.2 CALM 0 0 0 0 1015.9 1015.9 0.0
05/06:30am 8.3 7.8 7.9 97 0.2 CALM 0 0 0 0 1016.1 1016.1 0.0
05/06:00am 8.1 6.4 7.5 96 0.3 SW 6 7 3 4 1016.2 1016.2 0.0
05/05:30am 8.2 6.8 7.4 95 0.4 WSW 4 6 2 3 1015.9 1015.9 0.0
05/05:00am 8.5 7.4 7.1 91 0.7 WSW 2 6 1 3 1016.1 1016.1 0.0
05/04:30am 9.7 8.7 8.9 95 0.4 WSW 4 4 2 2 1016.1 1016.1 0.0
05/04:00am 9.7 8.8 9.1 96 0.3 WSW 4 6 2 3 1016.3 1016.3 0.0
05/03:30am 9.0 7.8 7.9 93 0.5 NW 4 6 2 3 1016.2 1016.2 0.0
05/03:00am 10.3 10.1 9.2 93 0.5 CALM 0 0 0 0 1016.1 1016.1 0.0
05/02:30am 9.2 8.6 7.6 90 0.8 CALM 0 0 0 0 1016.9 1016.9 0.0
05/02:00am 10.3 9.9 8.4 88 0.9 CALM 0 0 0 0 1017.5 1017.4 0.0
05/01:30am 9.7 9.0 7.1 84 1.2 CALM 0 0 0 0 1017.8 1017.7 0.0
05/01:00am 11.3 10.9 8.3 82 1.5 CALM 0 0 0 0 1018.2 1018.1 0.0
05/12:30am 11.6 10.1 8.6 82 1.5 NW 6 7 3 4 1018.5 1018.4 0.0
05/12:00am 11.2 9.0 7.9 80 1.6 NW 9 9 5 5 1018.5 1018.4 0.0
 
Date/Time
EST
Temp
°C
App
Temp
°C
Dew
Point
°C
Rel
Hum
%
Delta-T
°C
Wind Press
QNH
hPa
Press
MSL
hPa
Rain since
9am
mm
Dir  Spd
km/h
Gust
km/h
Spd
kts
Gust
kts
04/11:30pm 11.3 9.2 8.2 81 1.5 NW 9 13 5 7 1018.6 1018.5 0.0
04/11:00pm 12.2 11.8 8.3 77 1.9 CALM 0 2 0 1 1018.9 1018.8 0.0
04/10:30pm 13.7 12.8 9.4 75 2.2 NNE 4 6 2 3 1019.3 1019.2 0.0
04/10:00pm 14.8 13.8 9.0 68 3.0 SSW 4 6 2 3 1019.6 1019.5 0.0
04/09:30pm 15.8 15.0 9.5 66 3.3 SSW 4 4 2 2 1019.5 1019.4 0.0
04/09:00pm 16.2 15.8 9.6 65 3.4 SSW 2 4 1 2 1019.5 1019.4 0.0
04/08:30pm 16.8 15.7 10.0 64 3.6 SSE 6 6 3 3 1019.2 1019.1 0.0
04/08:00pm 16.5 15.1 9.7 64 3.6 SSW 7 11 4 6 1018.9 1018.8 0.0
04/07:30pm 16.2 14.2 8.7 61 3.8 S 9 15 5 8 1018.6 1018.5 0.0
04/07:00pm 16.1 15.5 7.6 57 4.3 CALM 0 0 0 0 1018.1 1018.0 0.0
04/06:30pm 17.0 15.9 7.1 52 4.9 NNE 2 4 1 2 1017.5 1017.4 0.0
04/06:00pm 20.5 18.9 6.5 40 7.1 NNE 4 6 2 3 1017.2 1017.2 0.0
04/05:30pm 20.8 19.1 7.4 42 6.9 NNE 6 7 3 4 1016.9 1016.9 0.0
04/05:00pm 22.6 21.9 6.8 36 8.1 CALM 0 2 0 1 1016.6 1016.6 0.0
04/04:30pm 23.0 21.2 7.1 36 8.3 NNE 6 7 3 4 1016.5 1016.5 0.0
04/04:00pm 23.0 20.8 6.3 34 8.5 N 7 13 4 7 1016.5 1016.5 0.0
04/03:30pm 23.5 21.0 6.7 34 8.7 NE 9 19 5 10 1016.6 1016.6 0.0
04/03:00pm 23.4 21.0 7.1 35 8.5 NNE 9 15 5 8 1016.7 1016.7 0.0
04/02:30pm 23.2 20.7 6.5 34 8.6 NNE 9 17 5 9 1017.0 1017.0 0.0
04/02:00pm 23.4 21.6 7.1 35 8.5 N 6 17 3 9 1017.5 1017.4 0.0
04/01:30pm 23.2 21.2 6.9 35 8.4 NE 7 13 4 7 1018.0 1017.9 0.0
04/01:00pm 22.6 19.3 6.4 35 8.3 NNW 13 19 7 10 1018.6 1018.5 0.0
04/12:30pm 22.2 19.8 6.8 37 7.9 W 9 20 5 11 1019.2 1019.1 0.0
04/12:00pm 21.1 17.7 5.9 37 7.6 SSW 13 20 7 11 1019.8 1019.7 0.0
04/11:30am 20.8 17.8 6.0 38 7.4 SSW 11 20 6 11 1020.5 1020.4 0.0
04/11:00am 20.3 16.9 5.9 39 7.2 WSW 13 20 7 11 1021.2 1021.1 0.0
04/10:30am 19.6 16.1 5.6 40 6.9 SW 13 20 7 11 1021.3 1021.2 0.0
04/10:00am 19.3 15.2 6.4 43 6.4 SW 17 26 9 14 1021.6 1021.5 0.0
04/09:30am 19.0 15.1 7.1 46 6.0 WSW 17 24 9 13 1021.8 1021.7 0.0
04/09:00am 17.4 14.3 7.2 51 5.1 W 13 19 7 10 1022.2 1022.1 0.2
04/08:30am 15.9 13.7 7.9 59 4.0 WSW 9 15 5 8 1022.3 1022.2 0.2
04/08:00am 14.1 12.7 7.4 64 3.3 WNW 4 6 2 3 1022.3 1022.2 0.2
04/07:30am 11.9 10.4 8.4 79 1.7 W 6 9 3 5 1022.1 1022.0 0.2
04/07:00am 8.6 6.9 5.7 82 1.3 W 4 6 2 3 1021.9 1021.8 0.2
04/06:30am 7.7 4.9 5.3 85 1.1 W 9 15 5 8 1021.7 1021.6 0.2
04/06:00am 7.9 4.5 5.7 86 1.0 WNW 13 17 7 9 1021.4 1021.3 0.2
04/05:30am 7.5 4.4 5.5 87 0.9 W 11 13 6 7 1021.1 1021.0 0.2
04/05:00am 7.0 4.1 4.5 84 1.1 W 9 17 5 9 1020.8 1020.7 0.2
04/04:30am 6.9 4.5 4.4 84 1.1 WSW 6 9 3 5 1020.6 1020.5 0.2
04/04:00am 8.1 6.5 4.7 79 1.5 WSW 2 6 1 3 1020.3 1020.2 0.2
04/03:30am 9.3 7.8 4.9 74 2.0 WSW 2 6 1 3 1020.0 1019.9 0.2
04/03:00am 11.9 10.2 6.0 67 2.8 WSW 4 6 2 3 1020.0 1019.9 0.2
04/02:30am 10.0 8.8 4.6 69 2.4 CALM 0 6 0 3 1020.2 1020.1 0.2
04/02:00am 11.7 10.2 6.6 71 2.4 WSW 4 6 2 3 1020.3 1020.2 0.2
04/01:30am 10.1 8.5 4.7 69 2.4 WSW 2 6 1 3 1020.5 1020.4 0.2
04/01:00am 12.1 10.5 6.2 67 2.8 WSW 4 6 2 3 1020.5 1020.4 0.2
04/12:30am 11.0 8.1 4.7 65 2.9 WSW 9 9 5 5 1020.5 1020.4 0.2
04/12:00am 13.4 11.7 6.0 61 3.5 WSW 4 7 2 4 1020.6 1020.5 0.2
 
Date/Time
EST
Temp
°C
App
Temp
°C
Dew
Point
°C
Rel
Hum
%
Delta-T
°C
Wind Press
QNH
hPa
Press
MSL
hPa
Rain since
9am
mm
Dir  Spd
km/h
Gust
km/h
Spd
kts
Gust
kts
03/11:30pm 14.0 12.0 6.1 59 3.8 WSW 6 9 3 5 1020.3 1020.2 0.2
03/11:00pm 14.1 11.1 6.2 59 3.8 WSW 11 19 6 10 1020.0 1019.9 0.2
03/10:30pm 14.5 9.9 6.6 59 3.8 WSW 20 26 11 14 1019.6 1019.5 0.2
03/10:00pm 14.5 10.1 6.6 59 3.8 WSW 19 22 10 12 1019.5 1019.4 0.2
03/09:30pm 14.2 10.6 6.8 61 3.6 WSW 15 17 8 9 1019.3 1019.2 0.2
03/09:00pm 15.0 11.7 6.3 56 4.2 WSW 13 15 7 8 1018.8 1018.7 0.2
03/08:30pm 14.4 10.7 4.7 52 4.5 WSW 13 15 7 8 1018.1 1018.0 0.2
03/08:00pm 16.0 13.5 3.8 44 5.6 W 6 9 3 5 1017.6 1017.5 0.2
03/07:30pm 15.6 11.3 3.4 44 5.6 W 15 19 8 10 1016.6 1016.6 0.2
03/07:00pm 16.0 11.7 3.1 42 5.9 W 15 19 8 10 1015.8 1015.8 0.2
03/06:30pm 18.3 14.6 2.6 35 7.2 SW 11 13 6 7 1015.3 1015.3 0.2
03/06:00pm 18.6 14.1 2.4 34 7.4 SW 15 19 8 10 1014.5 1014.4 0.2
03/05:30pm 21.1 17.0 2.4 29 8.8 SW 13 22 7 12 1013.9 1013.8 0.2
03/05:00pm 22.7 17.6 2.8 27 9.5 SW 19 24 10 13 1013.2 1013.1 0.2
03/04:30pm 24.1 18.5 3.4 26 10.1 WSW 22 30 12 16 1012.6 1012.5 0.2
03/04:00pm 25.2 21.1 4.3 26 10.5 WSW 15 22 8 12 1012.3 1012.2 0.2
03/03:30pm 25.5 21.2 5.1 27 10.4 W 17 24 9 13 1012.1 1012.0 0.2
03/03:00pm 25.8 21.6 5.9 28 10.3 W 17 26 9 14 1011.9 1011.8 0.2
03/02:30pm 25.6 21.3 5.2 27 10.4 WNW 17 24 9 13 1011.7 1011.6 0.2
03/02:00pm 25.6 20.5 5.8 28 10.2 WSW 22 30 12 16 1011.5 1011.4 0.2
03/01:30pm 25.6 20.3 6.8 30 9.9 WSW 24 33 13 18 1011.2 1011.1 0.2
03/01:00pm 25.4 19.3 6.6 30 9.8 WSW 28 41 15 22 1011.3 1011.2 0.2
03/12:30pm 25.4 19.7 6.6 30 9.8 W 26 39 14 21 1011.3 1011.2 0.2
03/12:00pm 25.3 20.5 7.4 32 9.5 W 22 35 12 19 1011.2 1011.1 0.2
03/11:30am 25.7 19.9 7.8 32 9.6 WSW 28 46 15 25 1011.2 1011.1 0.2
03/11:00am 25.5 18.9 7.6 32 9.5 WSW 32 41 17 22 1010.7 1010.6 0.2
03/10:32am 25.4 18.9 8.0 33 9.3 WSW 32 46 17 25 1010.5 1010.4 0.2
03/10:30am 25.3 18.7 7.9 33 9.3 WSW 32 46 17 25 1010.6 1010.5 0.2
03/10:04am 25.1 19.3 8.1 34 9.1 WSW 28 48 15 26 1010.2 1010.1 0.0
03/10:00am 24.9 19.6 8.4 35 8.9 WSW 26 39 14 21 1010.1 1010.0 0.0
03/09:30am 23.6 21.7 10.6 44 7.2 SSW 11 17 6 9 1010.1 1010.0 0.0
03/09:00am 22.6 21.5 12.0 51 6.0 NNE 9 13 5 7 1009.9 1009.8 0.0
03/08:30am 19.9 16.9 11.9 60 4.5 N 19 22 10 12 1009.7 1009.6 0.0
03/08:00am 18.5 16.8 12.3 67 3.5 NNE 13 15 7 8 1009.7 1009.6 0.0
03/07:30am 16.9 16.3 12.2 74 2.6 NNE 7 9 4 5 1009.7 1009.6 0.0
03/07:00am 13.3 12.5 11.0 86 1.2 WSW 6 13 3 7 1009.9 1009.8 0.0
03/06:30am 12.9 12.0 10.8 87 1.1 SSE 6 9 3 5 1009.7 1009.6 0.0
03/06:00am 12.9 12.4 10.6 86 1.2 WNW 4 7 2 4 1009.7 1009.6 0.0
03/05:30am 13.1 11.5 10.1 82 1.6 NNE 9 13 5 7 1009.6 1009.5 0.0
03/05:00am 14.1 11.2 10.9 81 1.7 NNE 17 20 9 11 1009.5 1009.4 0.0
03/04:30am 14.2 14.3 10.2 77 2.1 CALM 0 6 0 3 1010.7 1010.6 0.0
03/04:00am 13.9 11.2 10.3 79 1.9 WSW 15 19 8 10 1011.8 1011.7 0.0
03/03:30am 16.7 14.9 9.4 62 3.8 NNE 9 9 5 5 1010.7 1010.6 0.0
03/03:00am 16.8 15.3 9.0 60 4.0 NNE 7 13 4 7 1010.6 1010.5 0.0
03/02:30am 17.3 14.7 9.5 60 4.1 NNE 13 17 7 9 1011.5 1011.4 0.0
03/02:00am 15.8 15.0 9.5 66 3.3 NE 4 7 2 4 1012.0 1011.9 0.0
03/01:30am 16.1 14.9 10.4 69 3.0 NNW 7 13 4 7 1012.2 1012.1 0.0
03/01:00am 14.2 13.6 9.0 71 2.7 NNE 2 4 1 2 1012.4 1012.3 0.0
03/12:30am 14.4 13.2 8.1 66 3.2 NNE 4 7 2 4 1012.7 1012.6 0.0
03/12:00am 18.1 16.0 9.7 58 4.4 NNW 11 15 6 8 1013.1 1013.0 0.0
 
Date/Time
EST
Temp
°C
App
Temp
°C
Dew
Point
°C
Rel
Hum
%
Delta-T
°C
Wind Press
QNH
hPa
Press
MSL
hPa
Rain since
9am
mm
Dir  Spd
km/h
Gust
km/h
Spd
kts
Gust
kts
02/11:30pm 15.1 12.7 8.6 65 3.3 N 11 13 6 7 1013.3 1013.2 0.0
02/11:00pm 14.2 13.3 7.9 66 3.1 NW 2 6 1 3 1013.7 1013.6 0.0
02/10:30pm 16.7 14.6 8.4 58 4.2 N 9 13 5 7 1014.0 1013.9 0.0
02/10:00pm 17.7 15.3 8.6 55 4.7 NNW 11 13 6 7 1014.4 1014.3 0.0
02/09:30pm 18.2 15.6 7.9 51 5.3 NNW 11 13 6 7 1014.3 1014.2 0.0
02/09:00pm 17.7 15.0 7.2 50 5.3 NW 11 15 6 8 1014.5 1014.4 0.0
02/08:30pm 19.2 16.9 7.3 46 6.1 NW 9 11 5 6 1014.5 1014.4 0.0
02/08:00pm 19.6 17.7 7.4 45 6.2 NNW 7 11 4 6 1014.3 1014.2 0.0
02/07:30pm 19.5 16.5 7.9 47 6.0 NW 13 17 7 9 1014.4 1014.3 0.0
02/07:00pm 19.6 16.3 8.0 47 6.0 WNW 15 28 8 15 1014.1 1014.0 0.0
02/06:30pm 21.0 17.7 8.0 43 6.8 WNW 15 22 8 12 1013.8 1013.7 0.0

Latest Capital City Observations: Canberra | Sydney | Melbourne | Brisbane | Adelaide | Perth | Hobart | Darwin

Other formats

Comma delimited format used in spreadsheet applications
http://www.bom.gov.au/fwo/IDN60901/IDN60901.94752.axf

JavaScript Object Notation format (JSON) in row-major order
http://www.bom.gov.au/fwo/IDN60901/IDN60901.94752.json

Data quality

Most of these data are generated automatically and are frequently updated. Quality checks on data are not normally performed. It is possible for incorrect values to appear. Refer to information at About Latest Weather Observations and please check the disclaimer before using these data.